sensor_id;sensor_type;location;lat;lon;timestamp;pressure;altitude;pressure_sealevel;temperature;humidity
4590;BME280;2307;48.448;9.216;2023-09-12T00:00:20;95127.50;;;21.72;100.00
4590;BME280;2307;48.448;9.216;2023-09-12T00:02:48;95126.78;;;21.58;100.00
4590;BME280;2307;48.448;9.216;2023-09-12T00:05:14;95120.22;;;21.42;100.00
4590;BME280;2307;48.448;9.216;2023-09-12T00:07:41;95116.09;;;21.36;100.00
4590;BME280;2307;48.448;9.216;2023-09-12T00:10:08;95117.09;;;21.48;100.00
4590;BME280;2307;48.448;9.216;2023-09-12T00:12:34;95120.16;;;21.64;100.00
4590;BME280;2307;48.448;9.216;2023-09-12T00:15:01;95120.13;;;21.47;100.00
4590;BME280;2307;48.448;9.216;2023-09-12T00:17:30;95115.94;;;21.41;100.00
4590;BME280;2307;48.448;9.216;2023-09-12T00:19:57;95116.75;;;21.41;100.00
4590;BME280;2307;48.448;9.216;2023-09-12T00:22:23;95105.56;;;21.48;100.00
4590;BME280;2307;48.448;9.216;2023-09-12T00:24:49;95115.75;;;21.68;100.00
4590;BME280;2307;48.448;9.216;2023-09-12T00:27:16;95107.06;;;21.71;100.00
4590;BME280;2307;48.448;9.216;2023-09-12T00:29:42;95112.44;;;21.62;100.00
4590;BME280;2307;48.448;9.216;2023-09-12T00:32:09;95111.19;;;21.38;100.00
4590;BME280;2307;48.448;9.216;2023-09-12T00:34:36;95113.06;;;21.29;100.00
4590;BME280;2307;48.448;9.216;2023-09-12T00:37:03;95110.72;;;21.36;100.00
4590;BME280;2307;48.448;9.216;2023-09-12T00:39:29;95118.25;;;21.25;100.00
4590;BME280;2307;48.448;9.216;2023-09-12T00:41:56;95108.25;;;21.17;100.00
4590;BME280;2307;48.448;9.216;2023-09-12T00:44:22;95114.38;;;21.40;100.00
4590;BME280;2307;48.448;9.216;2023-09-12T00:46:49;95113.03;;;21.20;100.00
4590;BME280;2307;48.448;9.216;2023-09-12T00:49:16;95105.00;;;21.06;100.00
4590;BME280;2307;48.448;9.216;2023-09-12T00:51:45;95115.38;;;20.99;100.00
4590;BME280;2307;48.448;9.216;2023-09-12T00:54:12;95114.53;;;20.90;100.00
4590;BME280;2307;48.448;9.216;2023-09-12T00:56:38;95113.59;;;20.86;100.00
4590;BME280;2307;48.448;9.216;2023-09-12T00:59:05;95107.22;;;20.82;100.00
4590;BME280;2307;48.448;9.216;2023-09-12T01:01:31;95108.81;;;20.83;100.00
4590;BME280;2307;48.448;9.216;2023-09-12T01:03:58;95109.91;;;20.82;100.00
4590;BME280;2307;48.448;9.216;2023-09-12T01:06:25;95107.09;;;20.87;100.00
4590;BME280;2307;48.448;9.216;2023-09-12T01:08:53;95103.00;;;20.90;100.00
4590;BME280;2307;48.448;9.216;2023-09-12T01:11:20;95111.75;;;20.95;100.00
4590;BME280;2307;48.448;9.216;2023-09-12T01:13:47;95106.50;;;21.12;100.00
4590;BME280;2307;48.448;9.216;2023-09-12T01:16:13;95099.84;;;21.10;100.00
4590;BME280;2307;48.448;9.216;2023-09-12T01:18:40;95109.19;;;21.12;100.00
4590;BME280;2307;48.448;9.216;2023-09-12T01:24:01;95104.22;;;21.06;100.00
4590;BME280;2307;48.448;9.216;2023-09-12T01:26:35;95111.59;;;21.23;100.00
4590;BME280;2307;48.448;9.216;2023-09-12T01:29:08;95106.22;;;21.00;100.00
4590;BME280;2307;48.448;9.216;2023-09-12T01:31:35;95116.59;;;20.93;100.00
4590;BME280;2307;48.448;9.216;2023-09-12T01:34:08;95116.69;;;20.80;100.00
4590;BME280;2307;48.448;9.216;2023-09-12T01:36:34;95121.69;;;20.73;100.00
4590;BME280;2307;48.448;9.216;2023-09-12T01:39:01;95116.94;;;20.70;100.00
4590;BME280;2307;48.448;9.216;2023-09-12T01:41:27;95116.38;;;20.59;100.00
4590;BME280;2307;48.448;9.216;2023-09-12T01:43:55;95122.72;;;20.63;100.00
4590;BME280;2307;48.448;9.216;2023-09-12T01:46:23;95113.06;;;20.62;100.00
4590;BME280;2307;48.448;9.216;2023-09-12T01:48:50;95118.44;;;20.62;100.00
4590;BME280;2307;48.448;9.216;2023-09-12T01:51:18;95116.09;;;20.60;100.00
4590;BME280;2307;48.448;9.216;2023-09-12T01:53:45;95114.47;;;20.59;100.00
4590;BME280;2307;48.448;9.216;2023-09-12T01:56:11;95113.69;;;20.59;100.00
4590;BME280;2307;48.448;9.216;2023-09-12T01:58:38;95117.16;;;20.59;100.00
4590;BME280;2307;48.448;9.216;2023-09-12T02:01:05;95116.97;;;20.56;100.00
4590;BME280;2307;48.448;9.216;2023-09-12T02:03:32;95112.41;;;20.56;100.00
4590;BME280;2307;48.448;9.216;2023-09-12T02:05:59;95107.72;;;20.62;100.00
4590;BME280;2307;48.448;9.216;2023-09-12T02:08:25;95111.00;;;20.59;100.00
4590;BME280;2307;48.448;9.216;2023-09-12T02:10:51;95111.50;;;20.61;100.00
4590;BME280;2307;48.448;9.216;2023-09-12T02:13:18;95112.22;;;20.75;100.00
4590;BME280;2307;48.448;9.216;2023-09-12T02:15:44;95108.97;;;20.64;100.00
4590;BME280;2307;48.448;9.216;2023-09-12T02:18:10;95107.59;;;20.67;100.00
4590;BME280;2307;48.448;9.216;2023-09-12T02:20:40;95109.44;;;20.58;100.00
4590;BME280;2307;48.448;9.216;2023-09-12T02:23:09;95104.97;;;20.53;100.00
4590;BME280;2307;48.448;9.216;2023-09-12T02:25:36;95102.56;;;20.52;100.00
4590;BME280;2307;48.448;9.216;2023-09-12T02:28:03;95103.09;;;20.54;100.00
4590;BME280;2307;48.448;9.216;2023-09-12T02:30:29;95096.31;;;20.56;100.00
4590;BME280;2307;48.448;9.216;2023-09-12T02:32:56;95098.31;;;20.51;100.00
4590;BME280;2307;48.448;9.216;2023-09-12T02:35:22;95089.91;;;20.44;100.00
4590;BME280;2307;48.448;9.216;2023-09-12T02:37:50;95097.94;;;20.44;100.00
4590;BME280;2307;48.448;9.216;2023-09-12T02:40:16;95088.81;;;20.45;100.00
4590;BME280;2307;48.448;9.216;2023-09-12T02:42:43;95091.84;;;20.52;100.00
4590;BME280;2307;48.448;9.216;2023-09-12T02:45:09;95090.88;;;20.48;100.00
4590;BME280;2307;48.448;9.216;2023-09-12T02:47:36;95089.16;;;20.52;100.00
4590;BME280;2307;48.448;9.216;2023-09-12T02:50:02;95078.88;;;20.45;100.00
4590;BME280;2307;48.448;9.216;2023-09-12T02:52:29;95077.28;;;20.44;100.00
4590;BME280;2307;48.448;9.216;2023-09-12T02:54:56;95085.16;;;20.41;100.00
4590;BME280;2307;48.448;9.216;2023-09-12T02:57:23;95078.69;;;20.42;100.00
4590;BME280;2307;48.448;9.216;2023-09-12T02:59:49;95083.31;;;20.50;100.00
4590;BME280;2307;48.448;9.216;2023-09-12T03:02:15;95081.06;;;20.43;100.00
4590;BME280;2307;48.448;9.216;2023-09-12T03:04:42;95077.47;;;20.48;100.00
4590;BME280;2307;48.448;9.216;2023-09-12T03:07:16;95086.19;;;20.53;100.00
4590;BME280;2307;48.448;9.216;2023-09-12T03:09:42;95087.22;;;20.66;100.00
4590;BME280;2307;48.448;9.216;2023-09-12T03:12:10;95084.78;;;20.78;100.00
4590;BME280;2307;48.448;9.216;2023-09-12T03:14:36;95088.94;;;20.62;100.00
4590;BME280;2307;48.448;9.216;2023-09-12T03:17:02;95087.84;;;20.63;100.00
4590;BME280;2307;48.448;9.216;2023-09-12T03:19:29;95086.38;;;20.57;100.00
4590;BME280;2307;48.448;9.216;2023-09-12T03:21:55;95085.00;;;20.46;100.00
4590;BME280;2307;48.448;9.216;2023-09-12T03:24:22;95092.28;;;20.45;100.00
4590;BME280;2307;48.448;9.216;2023-09-12T03:26:50;95086.94;;;20.45;100.00
4590;BME280;2307;48.448;9.216;2023-09-12T03:29:17;95079.41;;;20.56;100.00
4590;BME280;2307;48.448;9.216;2023-09-12T03:31:44;95085.75;;;20.60;100.00
4590;BME280;2307;48.448;9.216;2023-09-12T03:34:10;95077.56;;;20.65;100.00
4590;BME280;2307;48.448;9.216;2023-09-12T03:36:37;95079.66;;;20.68;100.00
4590;BME280;2307;48.448;9.216;2023-09-12T03:39:03;95073.31;;;20.64;100.00
4590;BME280;2307;48.448;9.216;2023-09-12T03:41:30;95074.91;;;20.65;100.00
4590;BME280;2307;48.448;9.216;2023-09-12T03:43:57;95066.59;;;20.75;100.00
4590;BME280;2307;48.448;9.216;2023-09-12T03:46:24;95068.56;;;20.83;100.00
4590;BME280;2307;48.448;9.216;2023-09-12T03:48:51;95069.06;;;20.94;100.00
4590;BME280;2307;48.448;9.216;2023-09-12T03:51:17;95065.84;;;21.05;100.00
4590;BME280;2307;48.448;9.216;2023-09-12T03:53:43;95070.19;;;21.15;100.00
4590;BME280;2307;48.448;9.216;2023-09-12T03:56:12;95068.88;;;21.12;100.00
4590;BME280;2307;48.448;9.216;2023-09-12T03:58:39;95063.03;;;21.10;100.00
4590;BME280;2307;48.448;9.216;2023-09-12T04:01:06;95068.09;;;20.90;100.00
4590;BME280;2307;48.448;9.216;2023-09-12T04:03:34;95075.75;;;20.74;100.00
4590;BME280;2307;48.448;9.216;2023-09-12T04:06:00;95071.88;;;20.58;100.00
4590;BME280;2307;48.448;9.216;2023-09-12T04:08:26;95081.44;;;20.50;100.00
4590;BME280;2307;48.448;9.216;2023-09-12T04:10:53;95074.84;;;20.56;100.00
4590;BME280;2307;48.448;9.216;2023-09-12T04:13:19;95077.34;;;20.75;100.00
4590;BME280;2307;48.448;9.216;2023-09-12T04:15:46;95075.41;;;20.67;100.00
4590;BME280;2307;48.448;9.216;2023-09-12T04:18:12;95064.66;;;20.89;100.00
4590;BME280;2307;48.448;9.216;2023-09-12T04:20:40;95076.03;;;20.95;100.00
4590;BME280;2307;48.448;9.216;2023-09-12T04:23:06;95065.50;;;20.76;100.00
4590;BME280;2307;48.448;9.216;2023-09-12T04:25:32;95082.28;;;20.59;100.00
4590;BME280;2307;48.448;9.216;2023-09-12T04:27:59;95083.31;;;20.50;100.00
4590;BME280;2307;48.448;9.216;2023-09-12T04:30:25;95081.56;;;20.45;100.00
4590;BME280;2307;48.448;9.216;2023-09-12T04:32:52;95077.69;;;20.38;100.00
4590;BME280;2307;48.448;9.216;2023-09-12T04:35:18;95077.56;;;20.43;100.00
4590;BME280;2307;48.448;9.216;2023-09-12T04:37:47;95073.25;;;20.55;100.00
4590;BME280;2307;48.448;9.216;2023-09-12T04:40:13;95074.03;;;20.56;100.00
4590;BME280;2307;48.448;9.216;2023-09-12T04:42:40;95080.41;;;20.60;100.00
4590;BME280;2307;48.448;9.216;2023-09-12T04:45:06;95075.06;;;20.68;100.00
4590;BME280;2307;48.448;9.216;2023-09-12T04:47:33;95082.41;;;20.54;100.00
4590;BME280;2307;48.448;9.216;2023-09-12T04:49:59;95076.50;;;20.44;100.00
4590;BME280;2307;48.448;9.216;2023-09-12T04:52:26;95072.91;;;20.48;100.00
4590;BME280;2307;48.448;9.216;2023-09-12T04:54:54;95068.66;;;20.34;100.00
4590;BME280;2307;48.448;9.216;2023-09-12T04:57:20;95059.72;;;20.25;100.00
4590;BME280;2307;48.448;9.216;2023-09-12T04:59:47;95063.19;;;20.39;100.00
4590;BME280;2307;48.448;9.216;2023-09-12T05:02:13;95060.94;;;20.54;100.00
4590;BME280;2307;48.448;9.216;2023-09-12T05:04:40;95058.56;;;20.53;100.00
4590;BME280;2307;48.448;9.216;2023-09-12T05:07:07;95063.22;;;20.61;100.00
4590;BME280;2307;48.448;9.216;2023-09-12T05:09:33;95067.16;;;20.63;100.00
4590;BME280;2307;48.448;9.216;2023-09-12T05:12:01;95062.63;;;20.73;100.00
4590;BME280;2307;48.448;9.216;2023-09-12T05:14:27;95066.97;;;20.82;100.00
4590;BME280;2307;48.448;9.216;2023-09-12T05:16:54;95060.19;;;20.85;100.00
4590;BME280;2307;48.448;9.216;2023-09-12T05:19:21;95060.00;;;20.81;100.00
4590;BME280;2307;48.448;9.216;2023-09-12T05:21:48;95062.56;;;20.86;100.00
4590;BME280;2307;48.448;9.216;2023-09-12T05:24:14;95058.06;;;20.73;100.00
4590;BME280;2307;48.448;9.216;2023-09-12T05:26:40;95066.13;;;20.73;100.00
4590;BME280;2307;48.448;9.216;2023-09-12T05:29:08;95061.38;;;20.70;100.00
4590;BME280;2307;48.448;9.216;2023-09-12T05:31:35;95074.59;;;20.66;100.00
4590;BME280;2307;48.448;9.216;2023-09-12T05:34:01;95070.88;;;20.76;100.00
4590;BME280;2307;48.448;9.216;2023-09-12T05:36:27;95071.91;;;20.89;100.00
4590;BME280;2307;48.448;9.216;2023-09-12T05:38:54;95077.38;;;20.84;100.00
4590;BME280;2307;48.448;9.216;2023-09-12T05:41:20;95076.84;;;20.95;100.00
4590;BME280;2307;48.448;9.216;2023-09-12T05:43:47;95076.25;;;21.07;100.00
4590;BME280;2307;48.448;9.216;2023-09-12T05:46:14;95085.25;;;21.25;100.00
4590;BME280;2307;48.448;9.216;2023-09-12T05:48:41;95078.00;;;21.34;100.00
4590;BME280;2307;48.448;9.216;2023-09-12T05:51:07;95086.00;;;21.56;100.00
4590;BME280;2307;48.448;9.216;2023-09-12T05:53:33;95090.94;;;21.71;100.00
4590;BME280;2307;48.448;9.216;2023-09-12T05:56:00;95081.81;;;21.81;100.00
4590;BME280;2307;48.448;9.216;2023-09-12T05:58:27;95078.47;;;21.75;100.00
4590;BME280;2307;48.448;9.216;2023-09-12T06:00:53;95084.47;;;21.72;100.00
4590;BME280;2307;48.448;9.216;2023-09-12T06:03:21;95089.53;;;21.82;100.00
4590;BME280;2307;48.448;9.216;2023-09-12T06:05:47;95087.22;;;21.98;100.00
4590;BME280;2307;48.448;9.216;2023-09-12T06:08:13;95090.59;;;22.03;100.00
4590;BME280;2307;48.448;9.216;2023-09-12T06:10:40;95085.84;;;22.17;100.00
4590;BME280;2307;48.448;9.216;2023-09-12T06:13:06;95091.38;;;22.21;100.00
4590;BME280;2307;48.448;9.216;2023-09-12T06:15:33;95090.13;;;22.18;100.00
4590;BME280;2307;48.448;9.216;2023-09-12T06:17:59;95091.25;;;22.26;99.73
4590;BME280;2307;48.448;9.216;2023-09-12T06:20:27;95100.13;;;22.44;97.49
4590;BME280;2307;48.448;9.216;2023-09-12T06:22:53;95091.09;;;22.48;95.96
4590;BME280;2307;48.448;9.216;2023-09-12T06:25:19;95091.25;;;22.60;95.00
4590;BME280;2307;48.448;9.216;2023-09-12T06:27:46;95095.38;;;22.75;93.99
4590;BME280;2307;48.448;9.216;2023-09-12T06:30:12;95097.28;;;22.83;93.31
4590;BME280;2307;48.448;9.216;2023-09-12T06:32:39;95102.16;;;22.90;97.61
4590;BME280;2307;48.448;9.216;2023-09-12T06:35:06;95102.03;;;22.86;99.76
4590;BME280;2307;48.448;9.216;2023-09-12T06:37:34;95106.28;;;22.87;100.00
4590;BME280;2307;48.448;9.216;2023-09-12T06:40:00;95095.69;;;22.82;100.00
4590;BME280;2307;48.448;9.216;2023-09-12T06:42:26;95100.59;;;22.89;100.00
4590;BME280;2307;48.448;9.216;2023-09-12T06:44:53;95096.59;;;23.03;94.64
4590;BME280;2307;48.448;9.216;2023-09-12T06:47:19;95094.69;;;23.12;99.87
4590;BME280;2307;48.448;9.216;2023-09-12T06:49:46;95107.19;;;23.17;100.00
4590;BME280;2307;48.448;9.216;2023-09-12T06:52:12;95101.47;;;23.18;100.00
4590;BME280;2307;48.448;9.216;2023-09-12T06:54:40;95112.09;;;23.23;100.00
4590;BME280;2307;48.448;9.216;2023-09-12T06:57:06;95115.44;;;23.12;100.00
4590;BME280;2307;48.448;9.216;2023-09-12T06:59:33;95120.38;;;23.01;100.00
4590;BME280;2307;48.448;9.216;2023-09-12T07:01:59;95120.84;;;23.03;100.00
4590;BME280;2307;48.448;9.216;2023-09-12T07:04:25;95127.06;;;22.95;100.00
4590;BME280;2307;48.448;9.216;2023-09-12T07:06:52;95128.94;;;23.03;100.00
4590;BME280;2307;48.448;9.216;2023-09-12T07:09:18;95132.59;;;22.90;100.00
4590;BME280;2307;48.448;9.216;2023-09-12T07:11:47;95131.50;;;22.91;100.00
4590;BME280;2307;48.448;9.216;2023-09-12T07:14:13;95132.44;;;22.78;100.00
4590;BME280;2307;48.448;9.216;2023-09-12T07:16:40;95131.81;;;22.81;100.00
4590;BME280;2307;48.448;9.216;2023-09-12T07:19:06;95138.16;;;22.85;100.00
4590;BME280;2307;48.448;9.216;2023-09-12T07:21:33;95142.25;;;22.74;100.00
4590;BME280;2307;48.448;9.216;2023-09-12T07:23:59;95138.16;;;22.68;100.00
4590;BME280;2307;48.448;9.216;2023-09-12T07:26:26;95138.91;;;22.60;100.00
4590;BME280;2307;48.448;9.216;2023-09-12T07:28:53;95140.00;;;22.59;100.00
4590;BME280;2307;48.448;9.216;2023-09-12T07:31:20;95140.38;;;22.66;100.00
4590;BME280;2307;48.448;9.216;2023-09-12T07:33:46;95145.91;;;22.87;100.00
4590;BME280;2307;48.448;9.216;2023-09-12T07:36:12;95141.94;;;22.84;100.00
4590;BME280;2307;48.448;9.216;2023-09-12T07:38:39;95146.19;;;23.02;100.00
4590;BME280;2307;48.448;9.216;2023-09-12T07:41:06;95152.53;;;23.06;100.00
4590;BME280;2307;48.448;9.216;2023-09-12T07:43:33;95158.88;;;23.10;100.00
4590;BME280;2307;48.448;9.216;2023-09-12T07:46:01;95150.13;;;23.31;100.00
4590;BME280;2307;48.448;9.216;2023-09-12T07:48:27;95154.25;;;23.37;100.00
4590;BME280;2307;48.448;9.216;2023-09-12T07:50:53;95154.56;;;23.26;100.00
4590;BME280;2307;48.448;9.216;2023-09-12T07:53:20;95159.47;;;23.33;100.00
4590;BME280;2307;48.448;9.216;2023-09-12T07:55:47;95162.63;;;23.44;100.00
4590;BME280;2307;48.448;9.216;2023-09-12T07:58:14;95175.66;;;23.42;100.00
4590;BME280;2307;48.448;9.216;2023-09-12T08:00:40;95169.81;;;23.40;100.00
4590;BME280;2307;48.448;9.216;2023-09-12T08:03:08;95168.97;;;23.39;100.00
4590;BME280;2307;48.448;9.216;2023-09-12T08:05:35;95169.47;;;23.50;100.00
4590;BME280;2307;48.448;9.216;2023-09-12T08:08:01;95184.06;;;23.40;100.00
4590;BME280;2307;48.448;9.216;2023-09-12T08:10:28;95181.19;;;23.45;100.00
4590;BME280;2307;48.448;9.216;2023-09-12T08:12:54;95180.41;;;23.45;100.00
4590;BME280;2307;48.448;9.216;2023-09-12T08:15:21;95176.44;;;23.34;100.00
4590;BME280;2307;48.448;9.216;2023-09-12T08:17:47;95181.84;;;23.34;100.00
4590;BME280;2307;48.448;9.216;2023-09-12T08:20:18;95179.16;;;23.34;100.00
4590;BME280;2307;48.448;9.216;2023-09-12T08:22:44;95173.09;;;23.28;100.00
4590;BME280;2307;48.448;9.216;2023-09-12T08:25:11;95176.91;;;23.36;100.00
4590;BME280;2307;48.448;9.216;2023-09-12T08:27:39;95182.00;;;23.28;100.00
4590;BME280;2307;48.448;9.216;2023-09-12T08:30:06;95189.75;;;23.39;100.00
4590;BME280;2307;48.448;9.216;2023-09-12T08:32:33;95180.13;;;23.20;100.00
4590;BME280;2307;48.448;9.216;2023-09-12T08:35:00;95181.69;;;23.13;100.00
4590;BME280;2307;48.448;9.216;2023-09-12T08:37:27;95182.16;;;23.23;100.00
4590;BME280;2307;48.448;9.216;2023-09-12T08:39:54;95178.16;;;23.47;100.00
4590;BME280;2307;48.448;9.216;2023-09-12T08:42:23;95178.13;;;23.64;100.00
4590;BME280;2307;48.448;9.216;2023-09-12T08:44:52;95182.44;;;23.65;100.00
4590;BME280;2307;48.448;9.216;2023-09-12T08:47:19;95178.09;;;23.72;100.00
4590;BME280;2307;48.448;9.216;2023-09-12T08:49:48;95184.25;;;23.81;100.00
4590;BME280;2307;48.448;9.216;2023-09-12T08:52:15;95180.59;;;23.86;100.00
4590;BME280;2307;48.448;9.216;2023-09-12T08:54:42;95178.00;;;23.98;100.00
4590;BME280;2307;48.448;9.216;2023-09-12T08:57:09;95175.41;;;24.10;100.00
4590;BME280;2307;48.448;9.216;2023-09-12T08:59:36;95180.28;;;24.25;100.00
4590;BME280;2307;48.448;9.216;2023-09-12T09:02:03;95183.25;;;24.32;100.00
4590;BME280;2307;48.448;9.216;2023-09-12T09:04:32;95181.97;;;24.39;100.00
4590;BME280;2307;48.448;9.216;2023-09-12T09:06:59;95188.75;;;24.45;100.00
4590;BME280;2307;48.448;9.216;2023-09-12T09:09:26;95183.16;;;24.50;100.00
4590;BME280;2307;48.448;9.216;2023-09-12T09:11:55;95178.81;;;24.57;100.00
4590;BME280;2307;48.448;9.216;2023-09-12T09:14:21;95171.09;;;24.68;100.00
4590;BME280;2307;48.448;9.216;2023-09-12T09:16:48;95169.94;;;24.77;100.00
4590;BME280;2307;48.448;9.216;2023-09-12T09:19:15;95173.31;;;24.95;100.00
4590;BME280;2307;48.448;9.216;2023-09-12T09:21:43;95164.56;;;24.98;100.00
4590;BME280;2307;48.448;9.216;2023-09-12T09:24:10;95164.78;;;25.05;98.98
4590;BME280;2307;48.448;9.216;2023-09-12T09:26:43;95162.47;;;25.16;100.00
4590;BME280;2307;48.448;9.216;2023-09-12T09:29:12;95165.44;;;25.23;100.00
4590;BME280;2307;48.448;9.216;2023-09-12T09:31:40;95167.38;;;25.34;93.43
4590;BME280;2307;48.448;9.216;2023-09-12T09:34:10;95164.50;;;25.40;92.00
4590;BME280;2307;48.448;9.216;2023-09-12T09:36:36;95158.97;;;25.48;89.57
4590;BME280;2307;48.448;9.216;2023-09-12T09:39:03;95151.03;;;25.52;88.50
4590;BME280;2307;48.448;9.216;2023-09-12T09:41:30;95151.28;;;25.59;85.92
4590;BME280;2307;48.448;9.216;2023-09-12T09:43:58;95141.47;;;25.66;88.76
4590;BME280;2307;48.448;9.216;2023-09-12T09:46:26;95140.69;;;25.78;83.76
4590;BME280;2307;48.448;9.216;2023-09-12T09:48:52;95133.47;;;25.82;85.96
4590;BME280;2307;48.448;9.216;2023-09-12T09:51:19;95139.56;;;25.91;78.54
4590;BME280;2307;48.448;9.216;2023-09-12T09:53:45;95139.47;;;26.00;81.58
4590;BME280;2307;48.448;9.216;2023-09-12T09:56:12;95132.81;;;26.09;74.00
4590;BME280;2307;48.448;9.216;2023-09-12T09:58:45;95128.75;;;26.27;72.00
4590;BME280;2307;48.448;9.216;2023-09-12T10:01:13;95133.25;;;26.35;77.42
4590;BME280;2307;48.448;9.216;2023-09-12T10:03:41;95131.66;;;26.47;70.43
4590;BME280;2307;48.448;9.216;2023-09-12T10:06:09;95129.41;;;26.49;73.92
4590;BME280;2307;48.448;9.216;2023-09-12T10:08:36;95126.22;;;26.59;78.14
4590;BME280;2307;48.448;9.216;2023-09-12T10:11:03;95134.13;;;26.64;77.39
4590;BME280;2307;48.448;9.216;2023-09-12T10:13:30;95134.19;;;26.67;76.44
4590;BME280;2307;48.448;9.216;2023-09-12T10:15:59;95127.09;;;26.75;75.98
4590;BME280;2307;48.448;9.216;2023-09-12T10:18:26;95128.56;;;26.84;77.38
4590;BME280;2307;48.448;9.216;2023-09-12T10:20:58;95133.22;;;27.00;70.98
4590;BME280;2307;48.448;9.216;2023-09-12T10:23:30;95124.91;;;27.20;66.29
4590;BME280;2307;48.448;9.216;2023-09-12T10:26:02;95131.34;;;27.43;60.19
4590;BME280;2307;48.448;9.216;2023-09-12T10:28:28;95138.06;;;27.62;61.53
4590;BME280;2307;48.448;9.216;2023-09-12T10:30:56;95134.81;;;27.87;60.45
4590;BME280;2307;48.448;9.216;2023-09-12T10:33:23;95139.09;;;28.04;56.71
4590;BME280;2307;48.448;9.216;2023-09-12T10:35:50;95136.47;;;28.23;58.06
4590;BME280;2307;48.448;9.216;2023-09-12T10:38:19;95138.56;;;28.30;54.74
4590;BME280;2307;48.448;9.216;2023-09-12T10:40:47;95134.69;;;28.46;54.42
4590;BME280;2307;48.448;9.216;2023-09-12T10:43:14;95135.16;;;28.68;53.70
4590;BME280;2307;48.448;9.216;2023-09-12T10:45:41;95134.78;;;28.85;53.13
4590;BME280;2307;48.448;9.216;2023-09-12T10:48:09;95130.47;;;29.03;52.34
4590;BME280;2307;48.448;9.216;2023-09-12T10:50:35;95136.56;;;28.96;53.48
4590;BME280;2307;48.448;9.216;2023-09-12T10:53:10;95130.63;;;29.10;50.40
4590;BME280;2307;48.448;9.216;2023-09-12T10:55:38;95126.09;;;29.37;48.54
4590;BME280;2307;48.448;9.216;2023-09-12T10:58:05;95127.72;;;29.61;48.94
4590;BME280;2307;48.448;9.216;2023-09-12T11:00:32;95127.44;;;29.88;52.45
4590;BME280;2307;48.448;9.216;2023-09-12T11:02:59;95124.84;;;29.95;48.36
4590;BME280;2307;48.448;9.216;2023-09-12T11:05:37;95118.25;;;29.96;47.21
4590;BME280;2307;48.448;9.216;2023-09-12T11:08:04;95112.88;;;30.03;44.69
4590;BME280;2307;48.448;9.216;2023-09-12T11:10:31;95119.59;;;30.10;44.73
4590;BME280;2307;48.448;9.216;2023-09-12T11:12:59;95112.38;;;30.21;45.42
4590;BME280;2307;48.448;9.216;2023-09-12T11:15:26;95125.38;;;30.53;45.99
4590;BME280;2307;48.448;9.216;2023-09-12T11:17:59;95122.03;;;30.67;45.39
4590;BME280;2307;48.448;9.216;2023-09-12T11:20:26;95112.63;;;30.91;45.19
4590;BME280;2307;48.448;9.216;2023-09-12T11:22:52;95114.03;;;31.11;45.23
4590;BME280;2307;48.448;9.216;2023-09-12T11:25:19;95106.16;;;31.36;45.53
4590;BME280;2307;48.448;9.216;2023-09-12T11:28:03;95107.56;;;31.59;44.80
4590;BME280;2307;48.448;9.216;2023-09-12T11:30:30;95106.13;;;31.73;44.19
4590;BME280;2307;48.448;9.216;2023-09-12T11:32:57;95107.03;;;31.84;43.43
4590;BME280;2307;48.448;9.216;2023-09-12T11:35:24;95104.28;;;31.80;43.11
4590;BME280;2307;48.448;9.216;2023-09-12T11:37:51;95103.59;;;31.94;43.15
4590;BME280;2307;48.448;9.216;2023-09-12T11:40:19;95095.97;;;32.14;42.42
4590;BME280;2307;48.448;9.216;2023-09-12T11:42:48;95097.09;;;32.05;41.03
4590;BME280;2307;48.448;9.216;2023-09-12T11:45:18;95084.31;;;32.20;41.85
4590;BME280;2307;48.448;9.216;2023-09-12T11:47:45;95093.84;;;32.47;41.37
4590;BME280;2307;48.448;9.216;2023-09-12T11:50:25;95088.69;;;32.35;41.54
4590;BME280;2307;48.448;9.216;2023-09-12T11:52:57;95094.66;;;32.51;41.88
4590;BME280;2307;48.448;9.216;2023-09-12T11:55:24;95085.66;;;32.51;39.83
4590;BME280;2307;48.448;9.216;2023-09-12T11:57:51;95088.38;;;32.47;41.01
4590;BME280;2307;48.448;9.216;2023-09-12T12:00:19;95084.13;;;32.53;40.91
4590;BME280;2307;48.448;9.216;2023-09-12T12:02:45;95084.88;;;32.47;41.23
4590;BME280;2307;48.448;9.216;2023-09-12T12:05:12;95086.31;;;32.27;39.25
4590;BME280;2307;48.448;9.216;2023-09-12T12:07:39;95087.16;;;32.41;40.70
4590;BME280;2307;48.448;9.216;2023-09-12T12:10:07;95090.34;;;32.54;38.69
4590;BME280;2307;48.448;9.216;2023-09-12T12:12:34;95085.00;;;32.65;39.28
4590;BME280;2307;48.448;9.216;2023-09-12T12:15:00;95079.97;;;32.12;38.80
4590;BME280;2307;48.448;9.216;2023-09-12T12:17:28;95080.47;;;32.35;38.83
4590;BME280;2307;48.448;9.216;2023-09-12T12:19:55;95081.13;;;32.11;39.62
4590;BME280;2307;48.448;9.216;2023-09-12T12:22:21;95083.72;;;32.51;39.43
4590;BME280;2307;48.448;9.216;2023-09-12T12:24:48;95078.66;;;32.53;38.93
4590;BME280;2307;48.448;9.216;2023-09-12T12:27:16;95082.78;;;32.95;38.10
4590;BME280;2307;48.448;9.216;2023-09-12T12:29:42;95077.06;;;33.28;38.61
4590;BME280;2307;48.448;9.216;2023-09-12T12:32:10;95080.97;;;33.31;37.93
4590;BME280;2307;48.448;9.216;2023-09-12T12:34:37;95068.50;;;33.54;37.18
4590;BME280;2307;48.448;9.216;2023-09-12T12:37:04;95083.38;;;33.53;37.44
4590;BME280;2307;48.448;9.216;2023-09-12T12:39:31;95074.03;;;33.61;36.98
4590;BME280;2307;48.448;9.216;2023-09-12T12:41:57;95066.97;;;33.60;36.71
4590;BME280;2307;48.448;9.216;2023-09-12T12:44:32;95066.22;;;34.13;37.39
4590;BME280;2307;48.448;9.216;2023-09-12T12:46:59;95067.75;;;34.00;36.38
4590;BME280;2307;48.448;9.216;2023-09-12T12:49:25;95069.34;;;33.87;36.56
4590;BME280;2307;48.448;9.216;2023-09-12T12:51:53;95067.31;;;33.41;36.35
4590;BME280;2307;48.448;9.216;2023-09-12T12:54:21;95063.78;;;33.37;36.32
4590;BME280;2307;48.448;9.216;2023-09-12T12:56:48;95064.94;;;33.26;37.62
4590;BME280;2307;48.448;9.216;2023-09-12T12:59:14;95064.84;;;33.08;37.37
4590;BME280;2307;48.448;9.216;2023-09-12T13:01:43;95063.38;;;33.35;37.44
4590;BME280;2307;48.448;9.216;2023-09-12T13:04:10;95058.69;;;33.36;37.01
4590;BME280;2307;48.448;9.216;2023-09-12T13:06:36;95056.72;;;33.29;37.03
4590;BME280;2307;48.448;9.216;2023-09-12T13:09:05;95061.44;;;33.39;36.70
4590;BME280;2307;48.448;9.216;2023-09-12T13:11:31;95051.16;;;33.08;36.63
4590;BME280;2307;48.448;9.216;2023-09-12T13:13:59;95054.34;;;33.17;36.61
4590;BME280;2307;48.448;9.216;2023-09-12T13:16:26;95053.41;;;32.78;37.31